Albuquerque, New Mexico
Current Conditions -  °F | °C
As of 9:52 PM on Saturday 22 Nov 2014 (Local Time) from KABQ Reporting Station
Broken Clouds Broken Clouds  
Wind Chill: 39°   Ceiling: 22000
Heat Index: 44°   Visibility: 10mi
Dew Point: 14°   Wind: 10mph
Humidity: 30%   Direction: 160°SSE
Pressure: 29.86"   Gusts: NA
Location:  35.08°N, 106.64°W
Report Text: KABQ 230452Z 16009KT 10SM BKN220 07/M10 A2986 RMK AO2 SLP092 T00671100
Loading
Personal Weather Stations






























Interactive Weather Map New forecast layout! Learn more

10-Day Weather Forecast

Advertisements
Track Severe Weather on mobile